Time;durP1;ratioP1;P1;durP2;ratioP2;P2;SDS_P1;SDS_P2;PMS_P1;PMS_P2;Temp;Humidity;BMP_temperature;BMP_pressure;BME280_temperature;BME280_humidity;BME280_pressure;Samples;Min_cycle;Max_cycle;Signal;HPM_P1;HPM_P2
2021/03/23 00:00:40;;;;;;;1.87;0.70;;;;;;;-0.20;56.50;99009.08;1758411;79;21243;-60
2021/03/23 00:03:16;;;;;;;2.90;1.20;;;;;;;-0.26;56.75;99014.48;1754790;79;21191;-56
2021/03/23 00:05:44;;;;;;;3.80;1.37;;;;;;;-0.28;56.90;99012.30;1753043;79;21377;-57
2021/03/23 00:08:36;;;;;;;4.40;1.20;;;;;;;-0.30;56.96;99016.73;1757109;79;21266;-56
2021/03/23 00:11:35;;;;;;;2.77;0.87;;;;;;;-0.34;57.10;99013.70;1755531;79;21550;-60
2021/03/23 00:14:06;;;;;;;2.97;0.70;;;;;;;-0.36;57.21;99019.94;1754251;79;21159;-56
2021/03/23 00:16:40;;;;;;;4.07;1.00;;;;;;;-0.41;57.31;99017.35;1755041;79;21191;-58
2021/03/23 00:19:08;;;;;;;;;;;;;;;-0.45;57.46;99015.22;1755955;79;21384;-56
2021/03/23 00:21:36;;;;;;;6.70;1.60;;;;;;;-0.46;57.60;99015.24;1753668;79;20578;-54
2021/03/23 00:24:03;;;;;;;7.90;2.60;;;;;;;-0.49;57.60;99017.48;1753021;79;21227;-56
2021/03/23 00:26:31;;;;;;;7.50;2.57;;;;;;;-0.50;57.65;99018.37;1752049;79;21204;-59
2021/03/23 00:28:59;;;;;;;12.67;5.10;;;;;;;-0.54;57.64;99016.69;1751436;79;21179;-56
2021/03/23 00:31:30;;;;;;;6.73;2.23;;;;;;;-0.54;57.67;99018.45;1748700;79;21518;-60
2021/03/23 00:34:01;;;;;;;5.03;1.23;;;;;;;-0.57;57.76;99019.81;1754082;79;21748;-61
2021/03/23 00:36:38;;;;;;;3.10;1.10;;;;;;;-0.59;57.78;99017.64;1756613;79;21605;-60
2021/03/23 00:39:09;;;;;;;2.03;0.60;;;;;;;-0.61;57.80;99017.69;1753299;80;21116;-58
2021/03/23 00:41:39;;;;;;;1.57;0.53;;;;;;;-0.63;57.82;99010.22;1756696;79;21510;-56
2021/03/23 00:44:08;;;;;;;3.97;0.60;;;;;;;-0.65;57.78;99015.97;1753712;79;21390;-61
2021/03/23 00:46:36;;;;;;;2.00;0.47;;;;;;;-0.66;57.87;99016.86;1754446;79;21502;-60
2021/03/23 00:49:03;;;;;;;1.53;0.73;;;;;;;-0.67;57.94;99005.86;1753844;79;21175;-61
2021/03/23 00:51:32;;;;;;;1.73;0.57;;;;;;;-0.68;58.14;99013.36;1755325;79;21200;-58
2021/03/23 00:54:00;;;;;;;0.97;0.40;;;;;;;-0.68;58.20;99016.00;1755018;79;21159;-60
2021/03/23 00:56:28;;;;;;;1.37;0.50;;;;;;;-0.71;58.27;99012.55;1751081;79;21756;-60
2021/03/23 00:58:56;;;;;;;2.60;0.53;;;;;;;-0.74;58.34;99013.46;1748748;79;21239;-59
2021/03/23 01:01:23;;;;;;;2.00;0.60;;;;;;;-0.76;58.30;99013.92;1752166;79;21744;-60
2021/03/23 01:03:52;;;;;;;1.13;0.60;;;;;;;-0.79;58.42;99004.74;1758735;79;21100;-60
2021/03/23 01:06:20;;;;;;;2.43;0.50;;;;;;;-0.80;58.46;99009.16;1699341;82;21456;-60
2021/03/23 01:08:47;;;;;;;2.20;0.57;;;;;;;-0.83;58.54;99002.58;1725638;80;21278;-59
2021/03/23 01:11:14;;;;;;;2.17;0.60;;;;;;;-0.85;58.51;99009.64;1726975;80;21665;-61
2021/03/23 01:13:41;;;;;;;3.73;0.47;;;;;;;-0.86;58.72;99007.92;1697223;82;22299;-62
2021/03/23 01:16:09;;;;;;;2.23;1.10;;;;;;;-0.90;58.84;99006.21;1723127;81;21190;-59
2021/03/23 01:18:38;;;;;;;1.60;0.50;;;;;;;-0.93;59.03;99008.01;1725269;82;21597;-59
2021/03/23 01:21:05;;;;;;;0.87;0.40;;;;;;;-0.92;59.15;99011.95;1726648;82;21564;-58
2021/03/23 01:23:33;;;;;;;2.33;0.47;;;;;;;-0.92;59.12;99004.03;1723334;82;21594;-61
2021/03/23 01:26:00;;;;;;;1.67;0.40;;;;;;;-0.94;59.11;99007.16;1725598;82;21175;-57
2021/03/23 01:28:28;;;;;;;1.43;0.47;;;;;;;-0.95;59.11;99015.11;1725812;82;21716;-59
2021/03/23 01:30:55;;;;;;;1.97;0.40;;;;;;;-0.95;59.16;99008.50;1724737;81;21572;-60
2021/03/23 01:33:22;;;;;;;1.53;0.50;;;;;;;-0.98;59.11;99008.09;1724055;81;21389;-60
2021/03/23 01:35:51;;;;;;;2.57;0.70;;;;;;;-0.99;59.13;99004.14;1725854;81;21480;-59
2021/03/23 01:38:19;;;;;;;3.10;0.70;;;;;;;-1.02;59.07;99009.01;1727085;81;21122;-60
2021/03/23 01:40:48;;;;;;;2.73;0.97;;;;;;;-1.05;59.04;99010.84;1731175;82;21986;-61
2021/03/23 01:43:28;;;;;;;3.20;0.93;;;;;;;-1.09;59.10;99007.35;1724008;82;21442;-60
2021/03/23 01:45:57;;;;;;;5.13;0.77;;;;;;;-1.10;59.06;99010.01;1724379;81;21915;-61
2021/03/23 01:48:29;;;;;;;4.43;0.80;;;;;;;-1.14;59.14;99014.47;1724793;81;21123;-60
2021/03/23 01:51:06;;;;;;;4.57;1.03;;;;;;;-1.12;59.15;99013.14;1869729;75;26437;-61
2021/03/23 01:53:40;;;;;;;2.23;0.97;;;;;;;-1.19;59.32;99008.36;1856451;76;21162;-61
2021/03/23 01:56:08;;;;;;;3.58;1.00;;;;;;;-1.21;59.35;99011.05;1860780;76;21404;-62
2021/03/23 02:19:06;;;;;;;3.20;1.20;;;;;;;-1.37;59.83;99010.81;1856585;76;21606;-58
2021/03/23 02:21:33;;;;;;;1.70;0.90;;;;;;;-1.41;60.00;99005.13;1858459;76;21161;-58
2021/03/23 02:24:00;;;;;;;2.10;1.10;;;;;;;-1.43;60.14;99002.08;1862805;74;21456;-60
2021/03/23 02:26:33;;;;;;;2.53;0.70;;;;;;;-1.45;60.28;98998.16;1856637;74;21138;-59
2021/03/23 02:29:16;;;;;;;2.90;0.80;;;;;;;-1.49;60.32;99000.39;1863931;74;21159;-57
2021/03/23 02:31:48;;;;;;;2.53;0.80;;;;;;;-1.50;60.45;99004.36;1861805;76;21158;-59
2021/03/23 02:34:18;;;;;;;2.53;0.70;;;;;;;-1.56;60.60;99007.52;1863018;76;21477;-58
2021/03/23 02:36:48;;;;;;;2.70;0.70;;;;;;;-1.59;60.78;99014.14;1861237;76;21157;-59
2021/03/23 02:39:22;;;;;;;4.50;0.80;;;;;;;-1.63;60.96;99011.56;1865665;74;20941;-58
2021/03/23 02:41:50;;;;;;;4.17;0.80;;;;;;;-1.67;61.20;99014.67;1854289;76;21213;-58
2021/03/23 02:44:17;;;;;;;3.93;0.90;;;;;;;-1.70;61.37;99020.45;1834467;76;21636;-59
2021/03/23 02:46:45;;;;;;;3.77;0.80;;;;;;;-1.75;61.52;99017.84;1832802;76;21149;-57
2021/03/23 02:49:13;;;;;;;3.07;0.70;;;;;;;-1.79;61.67;99022.73;1836688;76;20964;-60
2021/03/23 02:51:41;;;;;;;4.50;0.80;;;;;;;-1.83;61.76;99013.09;1828782;76;21169;-60
2021/03/23 02:54:09;;;;;;;5.67;1.07;;;;;;;-1.83;61.87;99012.22;1840192;76;21365;-60
2021/03/23 02:56:36;;;;;;;5.30;1.37;;;;;;;-1.83;62.01;99018.37;1838145;76;21098;-60
2021/03/23 02:59:04;;;;;;;9.40;2.10;;;;;;;-1.84;62.05;99019.70;1835612;76;21137;-60
2021/03/23 03:01:33;;;;;;;3.97;1.70;;;;;;;-1.87;62.13;99017.95;1830698;76;21453;-60
2021/03/23 03:04:06;;;;;;;4.37;1.30;;;;;;;-1.89;62.26;99019.76;1835210;76;21140;-60
2021/03/23 03:06:33;;;;;;;5.50;1.37;;;;;;;-1.91;62.37;99025.05;1833142;76;21597;-60
2021/03/23 03:09:01;;;;;;;4.73;1.10;;;;;;;-1.94;62.44;99019.79;1832390;76;21216;-60
2021/03/23 03:11:28;;;;;;;5.87;1.10;;;;;;;-1.96;62.58;99022.88;1832214;76;21181;-60
2021/03/23 03:13:57;;;;;;;4.50;1.30;;;;;;;-1.97;62.69;99025.56;1833992;76;21529;-60
2021/03/23 03:16:24;;;;;;;5.57;1.53;;;;;;;-1.98;62.74;99025.13;1832224;76;21150;-59
2021/03/23 03:18:52;;;;;;;2.27;1.10;;;;;;;-2.00;62.81;99025.58;1838922;76;21503;-60
2021/03/23 03:21:19;;;;;;;4.10;1.10;;;;;;;-2.00;62.86;99028.22;1831285;76;21587;-60
2021/03/23 03:23:47;;;;;;;3.70;0.97;;;;;;;-2.04;62.88;99019.44;1827987;76;21443;-59
2021/03/23 03:26:14;;;;;;;4.83;1.20;;;;;;;-2.04;62.95;99018.13;1835764;76;21166;-59
2021/03/23 03:28:49;;;;;;;2.60;0.83;;;;;;;-2.06;63.06;99023.88;1838394;76;21146;-60
2021/03/23 03:31:11;;;;;;;4.47;0.90;;;;;;;-2.07;63.06;99022.58;1832273;76;23207;-60
2021/03/23 03:33:38;;;;;;;5.87;1.20;;;;;;;-2.09;63.16;99024.34;1837437;76;22372;-60
2021/03/23 03:36:07;;;;;;;2.73;0.87;;;;;;;-2.12;63.18;99021.72;1827809;76;21174;-59
2021/03/23 03:38:34;;;;;;;4.70;0.83;;;;;;;-2.14;63.21;99024.84;1828562;76;21150;-59
2021/03/23 03:41:01;;;;;;;3.37;0.70;;;;;;;-2.17;63.29;99025.73;1835296;76;21678;-58
2021/03/23 03:43:31;;;;;;;2.57;0.90;;;;;;;-2.18;63.31;99027.06;1832295;76;22237;-59
2021/03/23 03:45:58;;;;;;;7.50;1.10;;;;;;;-2.21;63.38;99027.11;1833989;76;21384;-59
2021/03/23 03:48:26;;;;;;;5.03;1.00;;;;;;;-2.24;63.45;99026.69;1828616;76;21137;-59
2021/03/23 03:50:53;;;;;;;4.20;1.20;;;;;;;-2.29;63.63;99025.38;1833030;76;21102;-59
2021/03/23 03:53:21;;;;;;;4.43;1.23;;;;;;;-2.32;63.70;99025.87;1834941;76;21184;-59
2021/03/23 03:55:48;;;;;;;3.73;0.90;;;;;;;-2.37;63.83;99031.16;1831684;76;21538;-59
2021/03/23 03:58:16;;;;;;;5.07;1.10;;;;;;;-2.40;63.95;99031.66;1838777;76;21205;-59
2021/03/23 04:00:43;;;;;;;2.77;0.80;;;;;;;-2.42;64.06;99038.25;1831195;76;21197;-58
2021/03/23 04:03:15;;;;;;;2.13;0.80;;;;;;;-2.44;64.17;99040.02;1832413;76;21166;-59
2021/03/23 04:05:45;;;;;;;3.13;0.83;;;;;;;-2.42;64.24;99037.38;1833449;76;21087;-58
2021/03/23 04:08:14;;;;;;;7.47;0.83;;;;;;;-2.40;64.27;99042.20;1834414;76;21349;-59
2021/03/23 04:10:43;;;;;;;3.33;0.80;;;;;;;-2.39;64.23;99041.31;1834185;76;21162;-59
2021/03/23 04:13:10;;;;;;;2.50;0.80;;;;;;;-2.38;64.24;99042.59;1833133;76;21154;-58
2021/03/23 04:15:41;;;;;;;5.03;0.87;;;;;;;-2.37;64.26;99044.34;1840515;76;21171;-59
2021/03/23 04:18:10;;;;;;;4.43;0.90;;;;;;;-2.35;64.21;99044.34;1833594;76;21793;-58
2021/03/23 04:20:38;;;;;;;2.63;0.80;;;;;;;-2.34;64.19;99048.73;1835288;76;21173;-57
2021/03/23 04:23:07;;;;;;;3.10;0.80;;;;;;;-2.31;64.23;99044.76;1834595;76;21146;-58
2021/03/23 04:25:35;;;;;;;2.37;0.80;;;;;;;-2.27;64.27;99048.23;1838641;76;21102;-58
2021/03/23 04:28:02;;;;;;;4.33;1.20;;;;;;;-2.24;64.26;99046.89;1790746;78;21705;-58
2021/03/23 04:30:30;;;;;;;4.07;0.80;;;;;;;-2.23;64.31;99049.52;1794094;77;21238;-58
2021/03/23 04:32:57;;;;;;;5.20;0.90;;;;;;;-2.23;64.11;99050.84;1797672;78;21395;-58
2021/03/23 04:35:50;;;;;;;4.90;0.90;;;;;;;-2.27;64.20;99046.47;1770665;78;21469;-58
2021/03/23 04:38:21;;;;;;;2.63;0.63;;;;;;;-2.23;64.32;99048.64;1774981;79;21100;-58
2021/03/23 04:40:48;;;;;;;4.43;0.80;;;;;;;-2.18;64.36;99049.03;1775728;79;21809;-59
2021/03/23 04:43:23;;;;;;;2.63;0.80;;;;;;;-2.12;64.33;99046.77;1776225;79;21165;-58
2021/03/23 04:45:51;;;;;;;3.43;0.80;;;;;;;-2.08;64.31;99049.38;1774443;79;21368;-58
2021/03/23 04:48:19;;;;;;;2.23;0.87;;;;;;;-2.03;64.22;99048.88;1778209;79;21546;-58
2021/03/23 04:50:48;;;;;;;2.50;0.70;;;;;;;-1.95;64.18;99050.13;1791167;78;20962;-59
2021/03/23 04:53:29;;;;;;;2.67;0.70;;;;;;;-1.87;64.12;99052.25;1805234;78;20977;-60
2021/03/23 04:55:56;;;;;;;3.00;0.70;;;;;;;-1.77;63.93;99047.31;1778258;78;21849;-60
2021/03/23 04:58:23;;;;;;;2.33;0.80;;;;;;;-1.65;63.72;99047.20;1800825;78;21446;-60
2021/03/23 05:00:51;;;;;;;3.37;1.10;;;;;;;-1.53;63.49;99054.09;1798361;78;21447;-59
2021/03/23 05:03:23;;;;;;;1.67;0.60;;;;;;;-1.41;63.06;99057.05;1801099;78;21138;-59
2021/03/23 05:05:55;;;;;;;4.60;0.70;;;;;;;-1.28;62.69;99057.36;1801775;78;21115;-58
2021/03/23 05:08:23;;;;;;;2.03;0.80;;;;;;;-1.07;62.52;99049.15;1779763;79;21080;-59
2021/03/23 05:10:52;;;;;;;2.00;1.30;;;;;;;-0.85;61.83;99054.56;1778235;78;22197;-59
2021/03/23 05:13:19;;;;;;;1.73;0.60;;;;;;;-0.63;61.33;99047.67;1801203;78;21114;-59
2021/03/23 05:15:47;;;;;;;1.80;0.70;;;;;;;-0.37;61.04;99048.16;1782950;79;21122;-60
2021/03/23 05:18:15;;;;;;;1.37;0.50;;;;;;;-0.12;60.43;99046.86;1798003;78;21166;-60
2021/03/23 05:20:43;;;;;;;0.90;0.40;;;;;;;0.02;59.63;99046.61;1802994;78;21780;-60
2021/03/23 05:23:12;;;;;;;2.47;0.50;;;;;;;0.08;59.08;99052.27;1802232;78;21379;-60
2021/03/23 05:25:41;;;;;;;3.50;0.50;;;;;;;0.09;58.91;99050.89;1800279;78;21222;-61
2021/03/23 05:28:09;;;;;;;1.63;0.50;;;;;;;0.07;58.55;99051.84;1797125;78;21715;-60
2021/03/23 05:30:38;;;;;;;0.93;0.50;;;;;;;-0.01;58.23;99055.50;1798864;78;21244;-60
2021/03/23 05:33:06;;;;;;;1.40;0.93;;;;;;;-0.07;58.10;99062.19;1800241;78;21178;-59
2021/03/23 05:35:34;;;;;;;2.53;0.73;;;;;;;-0.10;57.92;99059.62;1781281;79;21221;-59
2021/03/23 05:38:01;;;;;;;2.30;0.60;;;;;;;-0.11;58.07;99059.64;1797649;78;21198;-59
2021/03/23 05:40:33;;;;;;;2.63;0.87;;;;;;;-0.13;57.93;99054.81;1799800;78;21200;-59
2021/03/23 05:43:32;;;;;;;1.20;0.60;;;;;;;-0.15;58.04;99070.70;1799730;78;21234;-60
2021/03/23 05:46:27;;;;;;;4.53;0.60;;;;;;;-0.22;57.88;99066.41;1795192;78;21621;-59
2021/03/23 05:49:39;;;;;;;2.57;0.50;;;;;;;-0.27;58.17;99064.75;1802782;78;21437;-58
2021/03/23 05:52:24;;;;;;;3.07;1.43;;;;;;;-0.27;58.28;99070.05;1780165;78;21195;-59
2021/03/23 05:55:00;;;;;;;;;;;;;;;-0.24;58.15;99065.56;1778258;79;21173;-59
2021/03/23 05:57:33;;;;;;;3.13;0.60;;;;;;;-0.29;58.18;99062.58;1772996;79;20283;-59
2021/03/23 06:00:17;;;;;;;3.27;0.80;;;;;;;-0.34;58.50;99065.75;1768925;79;21218;-60
2021/03/23 06:02:59;;;;;;;1.32;0.60;;;;;;;-0.26;58.61;99059.45;1754348;79;21371;-60
2021/03/23 06:05:38;;;;;;;1.50;0.50;;;;;;;-0.16;57.65;99065.44;1775442;79;21238;-58
2021/03/23 06:08:18;;;;;;;1.70;0.90;;;;;;;-0.19;57.79;99066.83;1766803;79;21226;-60
2021/03/23 06:10:47;;;;;;;1.97;0.50;;;;;;;-0.13;57.87;99068.91;1777247;79;21250;-59
2021/03/23 06:13:35;;;;;;;6.43;0.60;;;;;;;-0.04;57.93;99066.56;1769371;79;21779;-60
2021/03/23 06:16:35;;;;;;;4.53;0.57;;;;;;;0.02;57.69;99074.39;1775573;79;22885;-59
2021/03/23 06:19:14;;;;;;;3.50;0.57;;;;;;;0.05;57.71;99065.09;1776449;79;21226;-61
2021/03/23 06:22:15;;;;;;;3.50;0.60;;;;;;;0.12;57.25;99068.50;1773836;79;21166;-60
2021/03/23 06:25:00;;;;;;;5.00;0.73;;;;;;;0.20;56.98;99071.88;1775236;79;21179;-60
2021/03/23 06:27:49;;;;;;;1.52;0.40;;;;;;;0.28;56.86;99062.91;1771631;79;21211;-61
2021/03/23 06:30:46;;;;;;;1.87;0.53;;;;;;;0.38;56.18;99067.59;1771687;79;22192;-61
2021/03/23 06:33:16;;;;;;;1.13;0.50;;;;;;;0.47;56.03;99066.55;1710396;79;21183;-61
2021/03/23 06:35:48;;;;;;;1.83;0.50;;;;;;;0.57;55.80;99073.42;1776398;79;21183;-60
2021/03/23 06:38:22;;;;;;;3.63;0.50;;;;;;;0.63;55.38;99076.83;1771669;79;21112;-60
2021/03/23 06:41:26;;;;;;;3.50;0.50;;;;;;;0.73;54.56;99073.55;1773294;79;21533;-62
2021/03/23 06:44:02;;;;;;;1.30;0.40;;;;;;;0.75;54.75;99073.95;1778076;78;21377;-60
2021/03/23 06:46:36;;;;;;;0.57;0.30;;;;;;;0.82;54.46;99080.44;1777105;78;21123;-60
2021/03/23 06:49:24;;;;;;;1.10;0.40;;;;;;;0.88;53.47;99083.83;1775834;78;21236;-61
2021/03/23 06:52:02;;;;;;;3.73;0.60;;;;;;;0.82;52.54;99079.99;1772684;78;21190;-61
2021/03/23 06:54:42;;;;;;;4.93;0.50;;;;;;;0.67;52.40;99078.52;1778503;78;21154;-62
2021/03/23 06:57:15;;;;;;;0.77;0.33;;;;;;;0.64;52.09;99081.22;1776002;78;22263;-61
2021/03/23 07:00:00;;;;;;;1.40;0.40;;;;;;;0.65;52.36;99079.45;1773054;78;21585;-56
2021/03/23 07:02:37;;;;;;;1.60;0.50;;;;;;;0.69;51.45;99083.77;1775400;78;21199;-59
2021/03/23 07:05:31;;;;;;;9.77;0.70;;;;;;;0.67;51.46;99089.57;1774594;78;21988;-63
2021/03/23 07:08:11;;;;;;;1.43;0.70;;;;;;;0.62;51.25;99084.34;1776779;78;21215;-58
2021/03/23 07:10:43;;;;;;;2.83;0.50;;;;;;;0.61;52.02;99079.94;1779029;78;22042;-59
2021/03/23 07:13:34;;;;;;;0.90;0.40;;;;;;;0.73;52.15;99081.05;1777330;78;21120;-61
2021/03/23 07:16:15;;;;;;;1.83;0.50;;;;;;;0.85;51.84;99075.09;1775555;78;21891;-60
2021/03/23 07:18:46;;;;;;;1.73;0.50;;;;;;;0.97;51.82;99074.38;1775075;78;21664;-59
2021/03/23 07:21:39;;;;;;;3.77;0.53;;;;;;;1.05;49.99;99073.77;1775361;78;21186;-61
2021/03/23 07:24:15;;;;;;;1.70;0.60;;;;;;;1.08;49.92;99074.16;1772768;78;22181;-59
2021/03/23 07:26:59;;;;;;;1.67;0.40;;;;;;;1.16;49.03;99075.33;1776751;78;21218;-57
2021/03/23 07:29:30;;;;;;;1.30;0.47;;;;;;;1.18;45.22;99077.05;1773293;78;21638;-61
2021/03/23 07:36:48;;;;;;;1.43;0.40;;;;;;;1.15;44.51;99085.05;1785976;77;26825;-62
2021/03/23 07:39:35;;;;;;;1.57;0.30;;;;;;;1.10;45.21;99073.69;1760617;78;22466;-62
2021/03/23 07:42:28;;;;;;;1.27;0.30;;;;;;;1.16;45.04;99069.57;1760194;78;21544;-62
2021/03/23 07:45:31;;;;;;;0.80;0.30;;;;;;;1.24;44.49;99070.73;1763873;78;21020;-57
2021/03/23 07:48:05;;;;;;;0.83;0.37;;;;;;;1.32;43.88;99069.66;1759270;78;21498;-57
2021/03/23 07:50:35;;;;;;;5.27;1.07;;;;;;;1.37;41.55;99073.06;1768399;78;21025;-62
2021/03/23 07:53:40;;;;;;;2.57;0.70;;;;;;;1.36;41.47;99079.27;1767869;78;21630;-59
2021/03/23 07:56:47;;;;;;;3.80;0.47;;;;;;;1.33;41.15;99060.80;1740049;79;21284;-60
2021/03/23 07:59:26;;;;;;;3.93;1.07;;;;;;;1.37;42.06;99060.26;1684211;83;21115;-64
2021/03/23 08:02:32;;;;;;;2.03;0.70;;;;;;;1.48;42.21;99064.88;1750243;78;21166;-60
2021/03/23 08:05:34;;;;;;;2.60;0.37;;;;;;;1.59;41.65;99058.02;1761137;78;21218;-60
2021/03/23 08:08:28;;;;;;;3.60;0.57;;;;;;;1.69;40.99;99058.22;1767797;78;21091;-62
2021/03/23 08:11:15;;;;;;;2.40;0.20;;;;;;;1.69;39.71;99053.79;1691427;80;21470;-64
2021/03/23 08:14:26;;;;;;;1.63;0.20;;;;;;;1.65;39.11;99063.16;1766703;78;21234;-63
2021/03/23 08:17:18;;;;;;;0.57;0.30;;;;;;;1.64;38.88;99062.73;1764344;78;21191;-63
2021/03/23 08:20:00;;;;;;;2.93;1.20;;;;;;;1.71;39.58;99055.92;1767935;78;21091;-58
2021/03/23 08:22:57;;;;;;;2.57;0.20;;;;;;;1.81;39.38;99064.55;1762250;78;21187;-63
2021/03/23 08:25:49;;;;;;;0.50;0.20;;;;;;;1.81;39.11;99050.83;1762992;78;21386;-60
2021/03/23 08:28:38;;;;;;;1.87;0.30;;;;;;;1.87;39.64;99049.34;1761305;78;21188;-60
2021/03/23 08:31:35;;;;;;;2.87;0.20;;;;;;;1.97;40.07;99042.03;1766870;78;21174;-64
2021/03/23 08:34:37;;;;;;;0.30;0.10;;;;;;;2.06;38.55;99045.78;1765456;78;21238;-62
2021/03/23 08:37:41;;;;;;;1.07;0.20;;;;;;;2.10;39.08;99052.77;1765861;78;21191;-58
2021/03/23 08:40:35;;;;;;;0.60;0.20;;;;;;;2.11;38.62;99051.86;1762839;78;22310;-60
2021/03/23 08:43:03;;;;;;;0.50;0.13;;;;;;;2.12;38.77;99046.97;1763014;78;21179;-60
2021/03/23 08:45:35;;;;;;;1.30;0.30;;;;;;;2.14;39.01;99046.91;1760651;78;21644;-59
2021/03/23 08:48:12;;;;;;;1.80;0.10;;;;;;;2.17;39.06;99057.01;1761370;78;21191;-61
2021/03/23 08:50:41;;;;;;;0.83;0.20;;;;;;;2.16;37.08;99046.42;1698993;78;21230;-59
2021/03/23 08:53:34;;;;;;;1.53;0.40;;;;;;;2.08;37.72;99055.03;1766381;78;21491;-61
2021/03/23 08:56:04;;;;;;;0.80;0.30;;;;;;;1.99;38.05;99049.50;1765518;78;21219;-61
2021/03/23 08:58:48;;;;;;;0.73;0.20;;;;;;;1.95;38.40;99059.80;1764567;78;21538;-62
2021/03/23 09:01:38;;;;;;;5.00;0.27;;;;;;;1.95;38.48;99050.50;1760978;78;21171;-61
2021/03/23 09:04:32;;;;;;;0.30;0.20;;;;;;;2.07;39.18;99045.33;1825080;77;27090;-61
2021/03/23 09:07:03;;;;;;;2.10;0.20;;;;;;;2.11;38.04;99050.98;1797370;78;21234;-59
2021/03/23 09:09:45;;;;;;;0.87;0.20;;;;;;;2.10;38.28;99051.89;1790649;78;22668;-61
2021/03/23 09:12:41;;;;;;;0.70;0.33;;;;;;;2.04;38.18;99050.73;1794981;78;21183;-62
2021/03/23 09:15:18;;;;;;;0.60;0.20;;;;;;;1.91;38.05;99044.84;1703929;82;21333;-65
2021/03/23 09:18:15;;;;;;;0.37;0.20;;;;;;;1.81;38.62;99052.15;1762121;80;21398;-60
2021/03/23 09:20:49;;;;;;;0.57;0.20;;;;;;;1.76;38.55;99042.11;1764796;80;21193;-60
2021/03/23 09:26:01;;;;;;;4.10;0.20;;;;;;;1.81;38.88;99035.36;1819716;76;26767;-59
2021/03/23 09:28:40;;;;;;;7.03;1.47;;;;;;;1.80;39.24;99038.91;1790878;77;21040;-60
2021/03/23 09:31:49;;;;;;;2.97;1.10;;;;;;;1.84;38.99;99038.82;1795787;77;21450;-62
2021/03/23 09:35:06;;;;;;;1.07;0.20;;;;;;;1.88;39.70;99035.62;1795472;78;21209;-64
2021/03/23 09:37:47;;;;;;;0.90;0.10;;;;;;;2.05;39.10;99025.90;1790209;79;21238;-62
2021/03/23 09:40:23;;;;;;;1.47;0.10;;;;;;;2.26;39.63;99014.73;1792390;77;21060;-62
2021/03/23 09:42:56;;;;;;;0.60;0.10;;;;;;;2.44;37.61;99029.31;1779710;77;21361;-60
2021/03/23 09:45:39;;;;;;;2.17;0.27;;;;;;;2.42;38.63;99047.07;1776675;79;21521;-58
2021/03/23 09:48:20;;;;;;;1.80;0.20;;;;;;;2.22;39.86;99035.17;1778163;79;21624;-61
2021/03/23 09:50:57;;;;;;;0.50;0.13;;;;;;;2.04;40.73;99049.41;1753853;79;21171;-63
2021/03/23 09:53:36;;;;;;;0.70;0.20;;;;;;;1.89;41.64;99051.96;1779154;79;21187;-64
2021/03/23 09:56:12;;;;;;;0.77;0.10;;;;;;;1.83;42.46;99042.38;1777158;79;21250;-59
2021/03/23 09:58:40;;;;;;;0.30;0.10;;;;;;;1.84;41.91;99037.95;1775384;79;21386;-61
2021/03/23 10:01:20;;;;;;;0.40;0.10;;;;;;;1.86;41.77;99030.83;1777256;79;21218;-61
2021/03/23 10:03:50;;;;;;;0.40;0.20;;;;;;;1.93;41.72;99031.54;1777699;79;21509;-61
2021/03/23 10:06:27;;;;;;;1.03;0.20;;;;;;;2.09;41.66;99022.27;1776451;79;21228;-59
2021/03/23 10:09:07;;;;;;;0.20;0.10;;;;;;;2.23;41.01;99022.32;1778627;79;21241;-58
2021/03/23 10:11:43;;;;;;;1.53;0.30;;;;;;;2.42;39.43;99024.49;1776926;79;22376;-64
2021/03/23 10:14:22;;;;;;;2.57;0.03;;;;;;;2.57;38.51;99032.91;1778690;79;21666;-60
2021/03/23 10:16:49;;;;;;;0.50;0.20;;;;;;;2.57;37.24;99023.61;1777470;79;21762;-57
2021/03/23 10:19:22;;;;;;;0.30;0.10;;;;;;;2.41;38.32;99023.62;1777016;79;21206;-61
2021/03/23 10:21:53;;;;;;;0.60;0.20;;;;;;;2.32;38.38;99022.53;1771416;79;21208;-59
2021/03/23 10:24:24;;;;;;;0.43;0.10;;;;;;;2.37;37.42;99022.43;1777919;79;21218;-62
2021/03/23 10:26:53;;;;;;;0.47;0.20;;;;;;;2.44;36.25;99019.56;1775255;79;21182;-63
2021/03/23 10:29:31;;;;;;;3.17;0.20;;;;;;;2.46;37.64;99031.48;1775367;79;20983;-63
2021/03/23 10:32:02;;;;;;;1.00;0.30;;;;;;;2.46;37.85;99023.06;1778542;79;21075;-61
2021/03/23 10:34:31;;;;;;;1.33;0.20;;;;;;;2.62;38.37;99027.03;1777760;79;21170;-61
2021/03/23 10:37:03;;;;;;;0.40;0.20;;;;;;;2.81;37.64;99030.47;1777036;79;21430;-64
2021/03/23 10:39:48;;;;;;;0.50;0.20;;;;;;;2.95;38.00;99026.98;1816845;76;27392;-59
2021/03/23 10:42:30;;;;;;;0.10;0.10;;;;;;;2.98;37.07;99029.08;1801999;77;21065;-62
2021/03/23 10:45:24;;;;;;;0.57;0.10;;;;;;;2.91;37.72;99051.44;1820822;77;21352;-62
2021/03/23 10:48:25;;;;;;;0.40;0.10;;;;;;;2.75;40.67;99054.58;1817554;77;22655;-59
2021/03/23 10:51:25;;;;;;;0.30;0.10;;;;;;;2.45;51.44;99066.92;1784344;77;21514;-62
2021/03/23 10:54:13;;;;;;;0.80;0.10;;;;;;;2.26;44.48;99044.83;1779034;77;21052;-60
2021/03/23 10:56:46;;;;;;;0.13;0.00;;;;;;;2.13;41.13;99043.83;1819310;77;21183;-62
2021/03/23 10:59:33;;;;;;;0.50;0.10;;;;;;;2.06;40.23;99039.59;1767050;79;21830;-60
2021/03/23 11:02:24;;;;;;;0.10;0.10;;;;;;;2.08;40.70;99035.13;1770234;79;21171;-59
2021/03/23 11:05:12;;;;;;;2.30;0.10;;;;;;;2.19;40.56;99039.27;1768274;79;21439;-60
2021/03/23 11:08:00;;;;;;;0.20;0.10;;;;;;;2.39;39.29;99036.06;1762532;79;21104;-62
2021/03/23 11:10:32;;;;;;;3.07;0.10;;;;;;;2.55;36.95;99041.37;1753338;80;21772;-60
2021/03/23 11:13:00;;;;;;;1.50;0.57;;;;;;;2.65;37.33;99020.73;1752115;80;21341;-58
2021/03/23 11:18:30;;;;;;;0.67;0.20;;;;;;;2.48;46.07;99067.69;1869837;75;27328;-61
2021/03/23 11:21:02;;;;;;;0.90;0.30;;;;;;;2.17;47.16;99072.94;1860161;76;21580;-60
2021/03/23 11:23:44;;;;;;;3.57;0.60;;;;;;;1.88;46.71;99052.87;1858533;76;22610;-62
2021/03/23 11:26:14;;;;;;;2.30;0.30;;;;;;;1.74;45.54;99056.31;1861999;76;21083;-65
2021/03/23 11:28:45;;;;;;;0.60;0.10;;;;;;;1.66;45.93;99057.83;1861204;76;21146;-60
2021/03/23 11:31:15;;;;;;;3.03;0.30;;;;;;;1.65;46.45;99050.77;1859124;76;21251;-61
2021/03/23 11:33:44;;;;;;;3.73;0.80;;;;;;;1.67;46.96;99046.31;1859189;76;21166;-58
2021/03/23 11:36:12;;;;;;;1.63;0.40;;;;;;;1.72;45.78;99046.19;1861002;76;21387;-61
2021/03/23 11:38:39;;;;;;;5.97;0.67;;;;;;;1.79;44.82;99035.84;1861614;76;21047;-61
2021/03/23 11:41:13;;;;;;;0.93;0.40;;;;;;;1.89;45.16;99026.30;1867873;75;21043;-59
2021/03/23 11:43:44;;;;;;;1.47;0.40;;;;;;;2.06;44.61;99025.87;1841732;77;21197;-61
2021/03/23 11:46:26;;;;;;;0.70;0.30;;;;;;;2.20;43.83;99016.23;1838760;77;21151;-59
2021/03/23 11:49:04;;;;;;;0.80;0.50;;;;;;;2.34;43.59;99020.72;1837845;77;21166;-64
2021/03/23 11:51:29;;;;;;;1.10;0.30;;;;;;;2.46;43.23;99017.74;1836819;76;21639;-64
2021/03/23 11:53:57;;;;;;;1.80;0.10;;;;;;;2.56;41.65;99013.89;1841695;76;21599;-59
2021/03/23 11:56:25;;;;;;;0.20;0.10;;;;;;;2.63;41.20;99016.83;1843025;77;21720;-62
2021/03/23 11:58:55;;;;;;;0.30;0.10;;;;;;;2.65;40.20;99028.71;1843632;76;21588;-65
2021/03/23 12:01:24;;;;;;;2.80;0.20;;;;;;;2.57;40.73;99024.06;1840653;77;21636;-61
2021/03/23 12:03:53;;;;;;;0.80;0.20;;;;;;;2.53;41.16;99036.58;1835647;77;21158;-60
2021/03/23 12:06:29;;;;;;;0.60;0.20;;;;;;;2.51;41.48;99036.20;1836544;77;21544;-61
2021/03/23 12:08:59;;;;;;;0.43;0.10;;;;;;;2.51;41.72;99023.79;1841676;77;21229;-60
2021/03/23 12:11:47;;;;;;;0.83;0.20;;;;;;;2.54;42.27;99054.27;1845244;77;21714;-62
2021/03/23 12:14:41;;;;;;;1.87;0.30;;;;;;;2.54;42.39;99050.73;1840606;76;21617;-59
2021/03/23 12:17:12;;;;;;;1.22;0.50;;;;;;;2.45;42.08;99039.91;1730144;80;21178;-61
2021/03/23 12:19:49;;;;;;;2.57;0.50;;;;;;;2.38;41.87;99036.12;1775966;79;21198;-61
2021/03/23 12:22:20;;;;;;;0.90;0.20;;;;;;;2.32;41.37;99029.17;1749173;80;21734;-62
2021/03/23 12:24:49;;;;;;;0.70;0.30;;;;;;;2.25;41.41;99040.87;1775685;80;21158;-65
2021/03/23 12:27:18;;;;;;;0.70;0.20;;;;;;;2.16;41.31;99030.03;1774834;80;22730;-62
2021/03/23 12:29:45;;;;;;;0.40;0.20;;;;;;;2.08;41.72;99028.03;1773804;79;21182;-60
2021/03/23 12:32:15;;;;;;;1.10;0.30;;;;;;;2.06;42.23;99030.30;1774678;79;21205;-59
2021/03/23 12:34:45;;;;;;;0.73;0.20;;;;;;;2.08;42.72;99032.47;1774838;79;21186;-60
2021/03/23 12:37:13;;;;;;;0.40;0.20;;;;;;;2.17;43.21;99030.45;1774818;79;21194;-61
2021/03/23 12:39:41;;;;;;;1.77;0.20;;;;;;;2.30;43.28;99032.80;1774332;79;23114;-63
2021/03/23 12:42:09;;;;;;;1.13;0.73;;;;;;;2.42;43.44;99029.80;1773661;80;21182;-64
2021/03/23 12:44:37;;;;;;;1.23;0.30;;;;;;;2.58;42.43;99032.00;1746913;80;21165;-62
2021/03/23 12:47:05;;;;;;;1.40;0.40;;;;;;;2.71;41.85;99021.05;1775163;79;21206;-63
2021/03/23 12:49:32;;;;;;;1.17;0.30;;;;;;;2.71;41.40;99024.58;1774619;79;21214;-60